Bowie, Texas
Current Conditions -  °F | °C
As of 3:35 AM on Friday 28 Nov 2014 (Local Time) from K0F2 Reporting Station
Clear Clear  
Wind Chill: 37°   Ceiling: Unl
Heat Index: 40°   Visibility: 10mi
Dew Point: 29°   Wind: 5mph
Humidity: 65%   Direction: 150°SSE
Pressure: 30.26"   Gusts: NA
Location:  33.56°N, 97.85°W
Report Text: K0F2 280935Z AUTO 15004KT 10SM CLR 05/M01 A3026 RMK AO2 T00451015
Loading
Personal Weather Stations






























Interactive Weather Map New forecast layout! Learn more

10-Day Weather Forecast

Advertisements
Track Severe Weather on mobile